createdAt,value
2016-04-20T08:27:43.203Z,200
2016-04-20T08:28:43.175Z,175
2016-04-20T08:29:46.427Z,175
2016-04-20T08:30:43.180Z,160
2016-04-20T08:31:43.433Z,150
2016-04-20T08:32:43.310Z,150
2016-04-20T08:33:50.050Z,155
2016-04-20T08:34:43.097Z,160
2016-04-20T08:35:43.099Z,155
2016-04-20T08:36:43.759Z,155
2016-04-20T08:37:43.043Z,150
2016-04-20T08:38:43.045Z,150
2016-04-20T08:39:43.048Z,170
2016-04-20T08:40:43.035Z,155
2016-04-20T08:41:43.007Z,145
2016-04-20T08:42:42.978Z,140
2016-04-20T08:43:42.981Z,135
2016-04-20T08:44:42.968Z,130
2016-04-20T08:45:42.955Z,135
2016-04-20T08:46:42.942Z,145
2016-04-20T08:47:42.914Z,145
2016-04-20T08:48:42.917Z,150
2016-04-20T08:49:42.951Z,175
2016-04-20T08:50:42.875Z,200
2016-04-20T08:51:42.862Z,185
2016-04-20T08:52:42.848Z,140
2016-04-20T08:53:42.851Z,135
2016-04-20T08:54:42.823Z,140
2016-04-20T08:55:42.794Z,155
2016-04-20T08:56:42.797Z,190
2016-04-20T08:57:42.799Z,190
2016-04-20T08:58:42.772Z,180
2016-04-20T08:59:42.758Z,195
2016-04-20T09:00:42.761Z,210
2016-04-20T09:01:42.717Z,210
2016-04-20T09:02:42.735Z,215
2016-04-20T09:03:42.738Z,195
2016-04-20T09:04:42.787Z,200
2016-04-20T09:05:42.680Z,220
2016-04-20T09:06:42.698Z,200
2016-04-20T09:07:42.686Z,185
2016-04-20T09:08:42.688Z,210
2016-04-20T09:09:42.629Z,230
2016-04-20T09:10:42.663Z,240
2016-04-20T09:11:42.604Z,235
2016-04-20T09:12:42.637Z,230
2016-04-20T09:13:42.593Z,235
2016-04-20T09:14:42.549Z,235
2016-04-20T09:15:42.535Z,255
2016-04-20T09:16:42.538Z,235
2016-04-20T09:17:42.525Z,215
2016-04-20T09:18:42.575Z,210
2016-04-20T09:19:42.343Z,220
2016-04-20T09:20:42.487Z,245
2016-04-20T09:21:42.364Z,265
2016-04-20T09:22:42.288Z,275
2016-04-20T09:23:42.541Z,280
2016-04-20T09:24:42.434Z,265
2016-04-20T09:25:42.296Z,245
2016-04-20T09:26:42.408Z,280
2016-04-20T09:27:42.426Z,280
2016-04-20T09:28:42.382Z,280
2016-04-20T09:29:42.385Z,275
2016-04-20T09:30:42.357Z,270
2016-04-20T09:31:42.343Z,285
2016-04-20T09:32:42.330Z,285
2016-04-20T09:33:42.317Z,280
2016-04-20T09:34:42.304Z,270
2016-04-20T09:35:42.292Z,280
2016-04-20T09:36:42.325Z,300
2016-04-20T09:37:42.265Z,290
2016-04-20T09:38:42.252Z,290
2016-04-20T09:39:42.240Z,295
2016-04-20T09:40:42.211Z,295
2016-04-20T09:41:42.229Z,295
2016-04-20T09:42:42.529Z,275
2016-04-20T09:43:42.313Z,265
2016-04-20T09:44:42.191Z,295
2016-04-20T09:45:42.177Z,310
2016-04-20T09:46:42.024Z,310
2016-04-20T09:47:42.152Z,320
2016-04-20T09:48:42.123Z,325
2016-04-20T09:49:42.126Z,320
2016-04-20T09:50:42.128Z,320
2016-04-20T09:51:42.100Z,310
2016-04-20T09:52:42.102Z,320
2016-04-20T09:53:43.261Z,315
2016-04-20T09:54:42.077Z,320
2016-04-20T09:55:42.064Z,325
2016-04-20T09:56:42.066Z,325
2016-04-20T09:57:42.038Z,320
2016-04-20T09:58:42.010Z,320
2016-04-20T09:59:42.012Z,305
2016-04-20T10:00:41.999Z,310
2016-04-20T10:01:41.986Z,315
2016-04-20T10:02:41.973Z,315
2016-04-20T10:03:41.976Z,305
2016-04-20T10:04:41.947Z,320
2016-04-20T10:05:41.950Z,330
2016-04-20T10:06:41.937Z,340
2016-04-20T10:07:41.955Z,345
2016-04-20T10:08:41.911Z,350
2016-04-20T10:09:41.898Z,350
2016-04-20T10:10:42.073Z,370
2016-04-20T10:11:41.920Z,375
2016-04-20T10:12:41.875Z,355
2016-04-20T10:13:41.862Z,350
2016-04-20T10:14:41.850Z,320
2016-04-20T10:15:41.821Z,350
2016-04-20T10:16:41.808Z,370
2016-04-20T10:17:41.780Z,360
2016-04-20T10:18:41.829Z,355
2016-04-20T10:19:41.753Z,345
2016-04-20T10:20:41.756Z,310
2016-04-20T10:21:41.744Z,345
2016-04-20T10:22:41.730Z,345
2016-04-20T10:23:41.749Z,360
2016-04-20T10:24:41.720Z,360
2016-04-20T10:25:41.707Z,355
2016-04-20T10:26:41.538Z,350
2016-04-20T10:27:41.665Z,355
2016-04-20T10:28:41.668Z,315
2016-04-20T10:29:41.640Z,335
2016-04-20T10:30:41.627Z,325
2016-04-20T10:31:41.629Z,320
2016-04-20T10:32:41.663Z,315
2016-04-20T10:33:41.604Z,325
2016-04-20T10:34:41.607Z,335
2016-04-20T10:35:41.594Z,345
2016-04-20T10:36:41.596Z,350
2016-04-20T10:37:41.598Z,350
2016-04-20T10:38:43.648Z,360
2016-04-20T10:39:41.526Z,355
2016-04-20T10:40:41.544Z,345
2016-04-20T10:41:41.501Z,365
2016-04-20T10:42:41.362Z,320
2016-04-20T10:43:41.365Z,405
2016-04-20T10:44:41.477Z,300
2016-04-20T10:45:41.464Z,355
2016-04-20T10:46:41.514Z,405
2016-04-20T10:47:41.439Z,525
2016-04-20T10:48:41.441Z,515
2016-04-20T10:49:41.428Z,445
2016-04-20T10:50:41.414Z,375
2016-04-20T10:51:41.246Z,455
2016-04-20T10:52:41.389Z,455
2016-04-20T10:53:41.360Z,430
2016-04-20T10:54:41.379Z,405
2016-04-20T10:55:41.366Z,425
2016-04-20T10:56:41.353Z,470
2016-04-20T10:57:41.340Z,450
2016-04-20T10:58:41.327Z,450
2016-04-20T10:59:41.298Z,585
2016-04-20T11:00:41.285Z,630
2016-04-20T11:01:41.351Z,405
2016-04-20T11:02:41.276Z,350
2016-04-20T11:03:41.263Z,535
2016-04-20T11:04:41.265Z,460
2016-04-20T11:05:41.284Z,1325
2016-04-20T11:06:41.270Z,1135
2016-04-20T11:07:41.257Z,1685
2016-04-20T11:08:41.245Z,1695
2016-04-20T11:09:41.201Z,1480
2016-04-20T11:10:41.422Z,530
2016-04-20T11:11:41.112Z,335
2016-04-20T11:12:41.193Z,1595
2016-04-20T11:13:41.149Z,1520
2016-04-20T11:14:44.214Z,360
2016-04-20T11:15:41.170Z,1560
2016-04-20T11:16:41.172Z,1670
2016-04-20T11:17:41.144Z,1610
2016-04-20T11:18:41.115Z,1335
2016-04-20T11:19:41.118Z,1235
2016-04-20T11:20:41.106Z,1110
2016-04-20T11:21:41.405Z,1600
2016-04-20T11:22:41.001Z,420
2016-04-20T11:23:41.316Z,1305
2016-04-20T11:24:41.085Z,1875
2016-04-20T11:25:41.088Z,450
2016-04-20T11:26:41.090Z,975
2016-04-20T11:27:41.061Z,920
2016-04-20T11:28:41.095Z,2065
2016-04-20T11:29:41.098Z,2175
2016-04-20T11:30:41.054Z,1195
2016-04-20T11:31:41.041Z,1855
2016-04-20T11:32:41.060Z,1725
2016-04-20T11:33:41.125Z,1845
2016-04-20T11:34:41.065Z,2055
2016-04-20T11:35:41.021Z,2040
2016-04-20T11:36:41.007Z,480
2016-04-20T11:37:41.026Z,670
2016-04-20T11:38:41.029Z,1180
2016-04-20T11:39:41.016Z,2120
2016-04-20T11:40:40.987Z,2240
2016-04-20T11:41:40.834Z,1700
2016-04-20T11:42:41.008Z,2250
2016-04-20T11:43:40.995Z,765
2016-04-20T11:44:41.013Z,2380
2016-04-20T11:45:40.985Z,2370
2016-04-20T11:46:40.987Z,795
2016-04-20T11:47:40.958Z,1685
2016-04-20T11:48:40.978Z,1095
2016-04-20T11:49:40.980Z,620
2016-04-20T11:50:40.670Z,875
2016-04-20T11:51:40.954Z,1280
2016-04-20T11:52:40.941Z,1155
2016-04-20T11:53:40.944Z,1330
2016-04-20T11:54:40.931Z,1520
2016-04-20T11:55:40.964Z,1465
2016-04-20T11:56:40.936Z,1490
2016-04-20T11:57:40.907Z,1390
2016-04-20T11:58:40.926Z,1565
2016-04-20T11:59:40.898Z,1410
2016-04-20T12:00:40.978Z,1310
2016-04-20T12:01:40.903Z,1390
2016-04-20T12:02:40.999Z,1275
2016-04-20T12:03:40.735Z,1205
2016-04-20T12:04:40.879Z,1065
2016-04-20T12:05:41.086Z,1240
2016-04-20T12:06:40.885Z,1215
2016-04-20T12:07:40.857Z,1330
2016-04-20T12:08:40.718Z,1285
2016-04-20T12:09:40.862Z,1215
2016-04-20T12:10:40.848Z,1135
2016-04-20T12:11:40.867Z,690
2016-04-20T12:12:40.824Z,1185
2016-04-20T12:13:40.826Z,1195
2016-04-20T12:14:40.813Z,480
2016-04-20T12:15:40.815Z,1045
2016-04-20T12:16:40.817Z,255
2016-04-20T12:17:40.790Z,295
2016-04-20T12:18:40.809Z,360
2016-04-20T12:19:40.779Z,410
2016-04-20T12:20:41.376Z,365
2016-04-20T12:21:40.784Z,390
2016-04-20T12:22:40.772Z,470
2016-04-20T12:23:40.775Z,505
2016-04-20T12:24:40.777Z,595
2016-04-20T12:25:40.608Z,660
2016-04-20T12:26:40.751Z,705
2016-04-20T12:27:40.738Z,845
2016-04-20T12:28:40.928Z,840
2016-04-20T12:29:40.728Z,885
2016-04-20T12:30:40.730Z,775
2016-04-20T12:31:40.937Z,765
2016-04-20T12:32:40.704Z,745
2016-04-20T12:33:40.707Z,745
2016-04-20T12:34:40.679Z,750
2016-04-20T12:35:40.697Z,715
2016-04-20T12:36:40.669Z,650
2016-04-20T12:37:40.641Z,685
2016-04-20T12:38:40.659Z,695
2016-04-20T12:39:40.646Z,700
2016-04-20T12:40:40.821Z,805
2016-04-20T12:41:40.605Z,960
2016-04-20T12:42:40.607Z,1045
2016-04-20T12:43:40.625Z,1325
2016-04-20T12:44:40.581Z,1220
2016-04-20T12:45:40.584Z,1225
2016-04-20T12:46:40.587Z,1180
2016-04-20T12:47:40.590Z,970
2016-04-20T12:48:40.592Z,1020
2016-04-20T12:49:40.564Z,1015
2016-04-20T12:50:40.612Z,1130
2016-04-20T12:51:40.553Z,1200
2016-04-20T12:52:40.556Z,1220
2016-04-20T12:53:40.527Z,675
2016-04-20T12:54:40.514Z,1360
2016-04-20T12:55:40.564Z,1330
2016-04-20T12:56:40.520Z,1550
2016-04-20T12:57:40.491Z,1060
2016-04-20T12:58:40.494Z,1190
2016-04-20T12:59:40.497Z,1440
2016-04-20T13:00:40.483Z,1065
2016-04-20T13:01:40.485Z,465
2016-04-20T13:02:40.473Z,1340
2016-04-20T13:03:40.492Z,855
2016-04-20T13:04:40.463Z,1185
2016-04-20T13:05:40.544Z,590
2016-04-20T13:06:40.452Z,1200
2016-04-20T13:07:40.471Z,1330
2016-04-20T13:08:40.443Z,1015
2016-04-20T13:09:40.430Z,1220
2016-04-20T13:10:40.416Z,1680
2016-04-20T13:11:40.403Z,1480
2016-04-20T13:12:40.406Z,1420
2016-04-20T13:13:40.581Z,535
2016-04-20T13:14:40.427Z,1160
2016-04-20T13:15:40.399Z,1185
2016-04-20T13:16:40.401Z,1770
2016-04-20T13:17:40.373Z,1875
2016-04-20T13:18:40.360Z,1560
2016-04-20T13:19:40.378Z,745
2016-04-20T13:20:40.381Z,1625
2016-04-20T13:21:40.337Z,1615
2016-04-20T13:22:40.402Z,1645
2016-04-20T13:23:40.342Z,925
2016-04-20T13:24:40.328Z,1360
2016-04-20T13:25:40.331Z,1305
2016-04-20T13:26:40.334Z,1540
2016-04-20T13:27:40.291Z,1865
2016-04-20T13:28:40.325Z,500
2016-04-20T13:29:40.296Z,1045
2016-04-20T13:30:40.299Z,820
2016-04-20T13:31:40.316Z,2295
2016-04-20T13:32:40.273Z,2300
2016-04-20T13:33:40.291Z,655
2016-04-20T13:34:40.122Z,2020
2016-04-20T13:35:40.312Z,545
2016-04-20T13:36:40.299Z,2215
2016-04-20T13:37:40.270Z,1885
2016-04-20T13:38:40.258Z,585
2016-04-20T13:39:40.260Z,2020
2016-04-20T13:40:40.247Z,515
2016-04-20T13:41:40.235Z,2040
2016-04-20T13:42:40.409Z,2255
2016-04-20T13:43:40.270Z,935
2016-04-20T13:44:40.227Z,2290
2016-04-20T13:45:40.495Z,1600
2016-04-20T13:46:40.217Z,1675
2016-04-20T13:47:40.453Z,2150
2016-04-20T13:48:40.316Z,2130
2016-04-20T13:49:40.240Z,2290
2016-04-20T13:50:40.431Z,2095
2016-04-20T13:51:40.214Z,515
2016-04-20T13:52:40.187Z,2175
2016-04-20T13:53:40.407Z,510
2016-04-20T13:54:40.206Z,2365
2016-04-20T13:55:40.209Z,1765
2016-04-20T13:56:40.197Z,745
2016-04-20T13:57:40.183Z,485
2016-04-20T13:58:40.171Z,800
2016-04-20T13:59:40.173Z,2515
2016-04-20T14:00:40.176Z,880
2016-04-20T14:01:41.945Z,1260
2016-04-20T14:02:40.166Z,730
2016-04-20T14:03:40.372Z,855
2016-04-20T14:04:40.155Z,950
2016-04-20T14:05:40.127Z,685
2016-04-20T14:06:46.441Z,905
2016-04-20T14:07:43.164Z,500
2016-04-20T14:08:41.494Z,515
2016-04-20T14:09:42.966Z,595
2016-04-20T14:10:45.563Z,665
2016-04-20T14:11:40.971Z,635
2016-04-20T14:12:44.443Z,665
2016-04-20T14:13:46.680Z,750
2016-04-20T14:14:41.308Z,800
2016-04-20T14:15:44.513Z,710
2016-04-20T14:16:42.797Z,710
2016-04-20T14:17:46.143Z,805
2016-04-20T14:18:49.756Z,575
2016-04-20T14:19:45.384Z,940
2016-04-20T14:20:45.105Z,1045
2016-04-20T14:21:40.311Z,690
2016-04-20T14:22:50.908Z,620
2016-04-20T14:23:43.770Z,545
2016-04-20T14:24:42.882Z,650
2016-04-20T14:25:40.182Z,685
2016-04-20T14:26:44.794Z,595
2016-04-20T14:27:40.124Z,570
2016-04-20T14:28:40.846Z,805
2016-04-20T14:29:42.209Z,690
2016-04-20T14:30:39.977Z,630
2016-04-20T14:31:39.995Z,2480
2016-04-20T14:32:39.919Z,1635
2016-04-20T14:33:40.000Z,685
2016-04-20T14:34:40.893Z,1395
2016-04-20T14:35:45.521Z,2310
2016-04-20T14:36:44.711Z,1690
2016-04-20T14:37:39.886Z,445
2016-04-20T14:38:39.904Z,1600
2016-04-20T14:39:39.907Z,375
2016-04-20T14:40:39.941Z,300
2016-04-20T14:41:39.975Z,2240
2016-04-20T14:42:39.915Z,335
2016-04-20T14:43:39.871Z,460
2016-04-20T14:44:39.999Z,275
2016-04-20T14:45:39.861Z,2115
2016-04-20T14:46:39.864Z,2190
2016-04-20T14:47:39.850Z,555
2016-04-20T14:48:39.838Z,830
2016-04-20T14:49:39.841Z,430
2016-04-20T14:50:39.811Z,1520
2016-04-20T14:51:39.783Z,2100
2016-04-20T14:52:39.801Z,470
2016-04-20T14:53:39.960Z,350
2016-04-20T14:54:39.807Z,2180
2016-04-20T14:55:39.794Z,2005
2016-04-20T14:56:39.921Z,1990
2016-04-20T14:57:39.784Z,980
2016-04-20T14:58:39.740Z,355
2016-04-20T14:59:39.743Z,340
2016-04-20T15:00:39.760Z,415
2016-04-20T15:01:39.732Z,725
2016-04-20T15:02:39.734Z,1095
2016-04-20T15:03:39.706Z,410
2016-04-20T15:04:39.723Z,295
2016-04-20T15:05:39.914Z,315
2016-04-20T15:06:39.729Z,335
2016-04-20T15:07:39.732Z,275
2016-04-20T15:08:39.689Z,535
2016-04-20T15:09:39.817Z,390
2016-04-20T15:10:39.694Z,480
2016-04-20T15:11:39.681Z,935
2016-04-20T15:12:39.667Z,355
2016-04-20T15:13:39.748Z,400
2016-04-20T15:14:39.641Z,530
2016-04-20T15:15:39.660Z,310
2016-04-20T15:16:41.428Z,1265
2016-04-20T15:17:39.665Z,630
2016-04-20T15:18:39.621Z,240
2016-04-20T15:19:39.639Z,1105
2016-04-20T15:20:39.611Z,1035
2016-04-20T15:21:39.644Z,625
2016-04-20T15:22:39.632Z,975
2016-04-20T15:23:39.604Z,550
2016-04-20T15:24:39.590Z,350
2016-04-20T15:25:39.655Z,350
2016-04-20T15:26:39.565Z,480
2016-04-20T15:27:39.739Z,340
2016-04-20T15:28:40.071Z,450
2016-04-20T15:29:39.588Z,305
2016-04-20T15:30:39.576Z,385
2016-04-20T15:31:39.546Z,360
2016-04-20T15:32:39.549Z,240
2016-04-20T15:33:40.052Z,450
2016-04-20T15:34:39.961Z,270
2016-04-20T15:35:39.573Z,355
2016-04-20T15:36:39.642Z,275
2016-04-20T15:37:39.489Z,370
2016-04-20T15:38:39.477Z,405
2016-04-20T15:39:39.479Z,305
2016-04-20T15:40:39.514Z,300
2016-04-20T15:41:39.469Z,225
2016-04-20T15:42:39.597Z,340
2016-04-20T15:43:39.428Z,375
2016-04-20T15:44:39.447Z,350
2016-04-20T15:45:39.433Z,365
2016-04-20T15:46:39.436Z,265
2016-04-20T15:47:39.408Z,385
2016-04-20T15:48:39.473Z,240
2016-04-20T15:49:39.382Z,450
2016-04-20T15:50:39.385Z,400
2016-04-20T15:51:39.824Z,265
2016-04-20T15:52:39.686Z,270
2016-04-20T15:53:39.377Z,270
2016-04-20T15:54:39.316Z,235
2016-04-20T15:55:39.319Z,230
2016-04-20T15:56:39.321Z,290
2016-04-20T15:57:39.293Z,400
2016-04-20T15:58:39.302Z,340
2016-04-20T15:59:39.362Z,275
2016-04-20T16:00:39.407Z,285
2016-04-20T16:01:39.404Z,280
2016-04-20T16:02:39.526Z,190
2016-04-20T16:03:39.302Z,160
2016-04-20T16:04:38.986Z,235
2016-04-20T16:06:54.660Z,240
2016-04-20T16:07:07.395Z,210
2016-04-20T16:08:07.691Z,190
2016-04-20T16:09:07.699Z,200
2016-04-20T16:10:07.692Z,160
2016-04-20T16:11:07.684Z,155
2016-04-20T16:12:07.646Z,200
2016-04-20T16:13:07.652Z,200
2016-04-20T16:14:07.625Z,220
2016-04-20T16:15:07.646Z,240
2016-04-20T16:16:07.635Z,205
2016-04-20T16:17:07.623Z,145
2016-04-20T16:18:07.612Z,140
2016-04-20T16:19:07.585Z,190
2016-04-20T16:20:07.572Z,170
2016-04-20T16:21:07.608Z,240
2016-04-20T16:22:07.626Z,185
2016-04-20T16:23:07.552Z,260
2016-04-20T16:24:07.538Z,180
2016-04-20T16:25:07.510Z,215
2016-04-20T16:26:07.513Z,230
2016-04-20T16:27:07.501Z,245
2016-04-20T16:28:07.488Z,140
2016-04-20T16:29:07.475Z,240
2016-04-20T16:30:07.494Z,200
2016-04-20T16:31:07.497Z,225
2016-04-20T16:32:07.436Z,245
2016-04-20T16:33:07.439Z,225
2016-04-20T16:34:07.410Z,275
2016-04-20T16:35:07.476Z,275
2016-04-20T16:36:07.385Z,225
2016-04-20T16:37:07.387Z,195
2016-04-20T16:38:07.390Z,250
2016-04-20T16:39:07.362Z,200
2016-04-20T16:40:08.365Z,235
2016-04-20T16:41:07.382Z,255
2016-04-20T16:42:07.354Z,215
2016-04-20T16:43:07.326Z,145
2016-04-20T16:44:07.281Z,220
2016-04-20T16:45:07.268Z,255
2016-04-20T16:46:07.287Z,215
2016-04-20T16:47:07.273Z,245
2016-04-20T16:48:07.261Z,225
2016-04-20T16:49:07.248Z,260
2016-04-20T16:50:07.220Z,300
2016-04-20T16:51:07.254Z,285
2016-04-20T16:52:07.194Z,205
2016-04-20T16:53:07.243Z,285
2016-04-20T16:54:07.183Z,225
2016-04-20T16:55:07.186Z,245
2016-04-20T16:56:07.158Z,260
2016-04-20T16:57:07.160Z,235
2016-04-20T16:58:07.147Z,245
2016-04-20T16:59:07.119Z,225
2016-04-20T17:00:07.122Z,170
2016-04-20T17:01:07.124Z,225
2016-04-20T17:02:07.096Z,280
2016-04-20T17:03:07.066Z,265
2016-04-20T17:04:07.116Z,210
2016-04-20T17:05:07.041Z,275
2016-04-20T17:06:07.044Z,205
2016-04-20T17:07:07.030Z,240
2016-04-20T17:08:07.018Z,195
2016-04-20T17:09:07.021Z,230
2016-04-20T17:10:07.023Z,150
2016-04-20T17:11:07.041Z,175
2016-04-20T17:12:06.966Z,145
2016-04-20T17:13:06.938Z,135
2016-04-20T17:14:06.237Z,180
2016-04-20T17:15:06.943Z,260
2016-04-20T17:16:06.915Z,145
2016-04-20T17:17:06.918Z,135
2016-04-20T17:18:06.904Z,205
2016-04-20T17:19:06.891Z,265
2016-04-20T17:20:06.894Z,305
2016-04-20T17:21:06.850Z,125
2016-04-20T17:22:06.884Z,100
2016-04-20T17:23:06.871Z,225
2016-04-20T17:24:06.811Z,190
2016-04-20T17:25:06.017Z,155
2016-04-20T17:26:06.801Z,85
2016-04-20T17:27:06.788Z,145
2016-04-20T17:28:06.649Z,100
2016-04-20T17:29:06.777Z,125
2016-04-20T17:30:06.765Z,130
2016-04-20T17:31:10.205Z,130
2016-04-20T17:32:16.035Z,95
2016-04-20T17:33:12.398Z,85
2016-04-20T17:34:12.822Z,145
2016-04-20T17:35:19.466Z,155
2016-04-20T17:36:13.406Z,80
2016-04-20T17:37:15.018Z,90
2016-04-20T17:38:08.443Z,145
2016-04-20T17:39:11.195Z,90
2016-04-20T17:40:13.323Z,95
2016-04-20T17:41:14.263Z,105
2016-04-20T17:42:13.125Z,90
2016-04-20T17:43:12.113Z,80
2016-04-20T17:44:06.584Z,130
2016-04-20T17:45:06.555Z,110
2016-04-20T17:46:06.574Z,105
2016-04-20T17:47:06.529Z,125
2016-04-20T17:48:06.516Z,90
2016-04-20T17:49:06.503Z,115
2016-04-20T17:50:06.569Z,170
2016-04-20T17:51:06.337Z,100
2016-04-20T17:52:06.496Z,80
2016-04-20T17:53:06.154Z,90
2016-04-20T17:54:10.257Z,70
2016-04-20T17:55:06.963Z,85
2016-04-20T17:56:06.450Z,60
2016-04-20T17:58:08.846Z,65
2016-04-20T17:58:21.956Z,60
2016-04-20T17:59:21.661Z,60
2016-04-20T18:00:21.679Z,55
2016-04-20T18:01:21.806Z,65
2016-04-20T18:02:21.809Z,60
2016-04-20T18:03:21.781Z,55
2016-04-20T18:04:21.783Z,65
2016-04-20T18:05:21.740Z,60
2016-04-20T18:06:21.773Z,60
2016-04-20T18:07:21.759Z,65
2016-04-20T18:08:21.745Z,70
2016-04-20T18:09:21.749Z,55
2016-04-20T18:10:21.689Z,65
2016-04-20T18:11:21.691Z,75
2016-04-20T18:12:21.679Z,80
2016-04-20T18:13:21.666Z,65
2016-04-20T18:14:21.636Z,95
2016-04-20T18:15:21.639Z,95
2016-04-20T18:16:21.627Z,45
2016-04-20T18:17:21.618Z,45
2016-04-20T18:18:21.637Z,45
2016-04-20T18:19:21.623Z,40
2016-04-20T18:20:21.562Z,45
2016-04-20T18:21:21.535Z,40
2016-04-20T18:22:21.386Z,35
2016-04-20T18:23:21.529Z,35
2016-04-20T18:24:21.501Z,40
2016-04-20T18:25:21.519Z,40
2016-04-20T18:26:21.490Z,40
2016-04-20T18:27:21.462Z,35
2016-04-20T18:28:21.480Z,35
2016-04-20T18:29:21.467Z,30
2016-04-20T18:30:21.423Z,30
2016-04-20T18:31:21.410Z,35
2016-04-20T18:32:21.428Z,45
2016-04-20T18:33:21.400Z,45
2016-04-20T18:34:21.230Z,35
2016-04-20T18:35:21.343Z,30
2016-04-20T18:36:21.346Z,30
2016-04-20T18:37:21.333Z,30
2016-04-20T18:38:21.351Z,30
2016-04-20T18:39:21.322Z,30
2016-04-20T18:40:21.310Z,30
2016-04-20T18:42:12.705Z,30
2016-04-20T18:42:26.034Z,25
2016-04-20T18:43:25.740Z,25
2016-04-20T18:44:26.195Z,25
2016-04-20T18:45:25.948Z,25
2016-04-20T18:46:26.028Z,20
2016-04-20T18:47:25.813Z,25
2016-04-20T18:48:25.987Z,25
2016-04-20T18:49:26.224Z,25
2016-04-20T18:50:26.039Z,25
2016-04-20T18:51:25.886Z,25
2016-04-20T18:52:25.731Z,25
2016-04-20T18:53:25.704Z,30
2016-04-20T18:54:25.769Z,25
2016-04-20T18:55:25.709Z,20
2016-04-20T18:56:25.665Z,20
2016-04-20T18:57:25.683Z,20
2016-04-20T18:58:25.623Z,20
2016-04-20T18:59:25.642Z,15
2016-04-20T19:00:25.660Z,15
2016-04-20T19:01:25.851Z,15
2016-04-20T19:02:25.556Z,15
2016-04-20T19:03:25.527Z,15
2016-04-20T19:04:25.514Z,10
2016-04-20T19:05:25.486Z,10
2016-04-20T19:06:25.505Z,10
2016-04-20T19:07:25.461Z,10
2016-04-20T19:08:25.290Z,10
2016-04-20T19:09:25.449Z,10
2016-04-20T19:10:25.421Z,5
2016-04-20T19:11:25.408Z,5
2016-04-20T19:12:25.395Z,5
2016-04-20T19:13:25.383Z,5
2016-04-20T19:14:25.401Z,5
2016-04-20T19:15:25.388Z,5
2016-04-20T19:16:27.626Z,5
2016-04-20T19:17:25.346Z,5
2016-04-20T19:18:25.333Z,0
2016-04-20T19:19:25.398Z,0
2016-04-20T19:20:25.307Z,0
2016-04-20T19:21:25.342Z,0
2016-04-20T19:22:25.345Z,0
2016-04-20T19:23:25.253Z,0
2016-04-20T19:24:25.240Z,0
2016-04-20T19:25:25.242Z,0
2016-04-20T19:26:25.245Z,0
2016-04-20T19:27:25.201Z,0
2016-04-20T19:28:25.189Z,0
2016-04-20T19:29:25.191Z,0
2016-04-20T19:30:25.163Z,0
2016-04-20T19:31:25.119Z,0
2016-04-20T19:32:25.152Z,0
2016-04-20T19:33:25.140Z,0
2016-04-20T19:34:25.095Z,0
2016-04-20T19:35:25.097Z,0
2016-04-20T19:36:28.085Z,0
2016-04-20T19:37:25.072Z,0
2016-04-20T19:38:25.074Z,0
2016-04-20T19:39:25.047Z,0
2016-04-20T19:40:25.033Z,0
2016-04-20T19:41:25.005Z,0
2016-04-20T19:42:24.977Z,0
2016-04-20T19:43:25.010Z,0
2016-04-20T19:44:24.966Z,0
2016-04-20T19:45:24.953Z,0
2016-04-20T19:46:24.924Z,0
2016-04-20T19:47:25.255Z,0
2016-04-20T19:48:24.899Z,0
2016-04-20T19:49:24.901Z,0
2016-04-20T19:50:24.888Z,0
2016-04-20T19:51:27.876Z,0
2016-04-20T19:52:24.878Z,0
2016-04-20T19:53:24.834Z,0
2016-04-20T19:54:24.820Z,0
2016-04-20T19:55:27.823Z,0
2016-04-20T19:56:24.779Z,0
2016-04-20T19:57:24.892Z,0
2016-04-20T19:58:25.034Z,0
2016-04-20T19:59:24.787Z,0
2016-04-20T20:00:24.744Z,0
2016-04-20T20:01:24.747Z,0
2016-04-20T20:02:24.702Z,0
2016-04-20T20:03:24.705Z,0
2016-04-20T20:04:24.691Z,0
2016-04-20T20:05:24.961Z,0
2016-04-20T20:06:24.650Z,0
2016-04-20T20:07:24.653Z,0
2016-04-20T20:08:24.624Z,0
2016-04-20T20:09:24.627Z,0
2016-04-20T20:10:24.598Z,0
2016-04-20T20:11:24.569Z,0
2016-04-20T20:12:27.558Z,0
2016-04-20T20:13:24.559Z,0
2016-04-20T20:14:24.546Z,0
2016-04-20T20:15:27.596Z,0
2016-04-20T20:16:24.505Z,0
2016-04-20T20:17:24.477Z,0
2016-04-20T20:18:24.463Z,0
2016-04-20T20:19:24.451Z,0
2016-04-20T20:20:27.454Z,0
2016-04-20T20:21:24.425Z,0
2016-04-20T20:22:24.456Z,0
2016-04-20T20:23:24.417Z,0
2016-04-20T20:24:24.420Z,0
2016-04-20T20:25:24.375Z,0
2016-04-20T20:26:24.191Z,0
2016-04-20T20:27:24.364Z,0
2016-04-20T20:28:24.337Z,0
2016-04-20T20:29:24.308Z,0
2016-04-20T20:30:24.294Z,0
2016-04-20T20:31:25.111Z,0
2016-04-20T20:32:24.269Z,0
2016-04-20T20:33:24.256Z,0
2016-04-20T20:34:24.540Z,0
2016-04-20T20:35:24.230Z,0
2016-04-20T20:36:24.421Z,0
2016-04-20T20:37:24.188Z,0
2016-04-20T20:38:24.192Z,0
2016-04-20T20:39:24.179Z,0
2016-04-20T20:40:33.462Z,0
2016-04-20T20:41:27.027Z,0
2016-04-20T20:42:24.155Z,0
2016-04-20T20:43:24.126Z,0
2016-04-20T20:44:24.098Z,0
2016-04-20T20:45:24.085Z,0
2016-04-20T20:46:24.087Z,0
2016-04-20T20:47:24.060Z,0
2016-04-20T20:48:24.031Z,0
2016-04-20T20:49:24.017Z,0
2016-04-20T20:50:24.068Z,0
2016-04-20T20:51:27.023Z,0
2016-04-20T20:52:23.994Z,0
2016-04-20T20:53:23.981Z,0
2016-04-20T20:54:23.954Z,0
2016-04-20T20:55:23.925Z,0
2016-04-20T20:56:23.928Z,0
2016-04-20T20:57:23.914Z,0
2016-04-20T20:58:23.917Z,0
2016-04-20T20:59:23.888Z,0
2016-04-20T21:00:37.892Z,0
2016-04-20T21:01:23.864Z,0
2016-04-20T21:02:23.867Z,0
2016-04-20T21:03:23.837Z,0
2016-04-20T21:04:23.826Z,0
2016-04-20T21:05:23.812Z,0
2016-04-20T21:06:23.628Z,0
2016-04-20T21:07:23.770Z,0
2016-04-20T21:08:23.773Z,0
2016-04-20T21:09:23.760Z,0
2016-04-20T21:10:23.731Z,0
2016-04-20T21:11:23.720Z,0
2016-04-20T21:12:23.705Z,0
2016-04-20T21:13:23.692Z,0
2016-04-20T21:14:23.695Z,0
2016-04-20T21:15:23.714Z,0
2016-04-20T21:16:23.639Z,0
2016-04-20T21:17:23.625Z,0
2016-04-20T21:18:23.613Z,0
2016-04-20T21:19:23.600Z,0
2016-04-20T21:20:23.602Z,0
2016-04-20T21:21:26.589Z,0
2016-04-20T21:22:26.545Z,0
2016-04-20T21:23:26.532Z,0
2016-04-20T21:24:23.488Z,0
2016-04-20T21:25:23.710Z,0
2016-04-20T21:26:23.493Z,0
2016-04-20T21:27:23.340Z,0
2016-04-20T21:28:23.483Z,0
2016-04-20T21:29:23.455Z,0
2016-04-20T21:30:23.770Z,0
2016-04-20T21:31:23.445Z,0
2016-04-20T21:32:23.416Z,0
2016-04-20T21:33:23.387Z,0
2016-04-20T21:34:23.406Z,0
2016-04-20T21:35:26.674Z,0
2016-04-20T21:36:26.348Z,0
2016-04-20T21:37:23.351Z,0
2016-04-20T21:38:23.307Z,0
2016-04-20T21:39:23.295Z,0
2016-04-20T21:40:23.313Z,0
2016-04-20T21:41:23.315Z,0
2016-04-20T21:42:26.270Z,0
2016-04-20T21:43:23.242Z,0
2016-04-20T21:44:23.230Z,0
2016-04-20T21:45:23.217Z,0
2016-04-20T21:46:54.550Z,0
2016-04-20T21:47:23.238Z,0
2016-04-20T21:48:23.411Z,0
2016-04-20T21:49:23.164Z,0
2016-04-20T21:50:23.167Z,0
2016-04-20T21:51:23.139Z,0
2016-04-20T21:52:26.173Z,0
2016-04-20T21:53:23.113Z,0
2016-04-20T21:54:23.085Z,0
2016-04-20T21:55:23.072Z,0
2016-04-20T21:56:23.074Z,0
2016-04-20T21:57:23.061Z,0
2016-04-20T21:58:23.017Z,0
2016-04-20T21:59:23.020Z,0
2016-04-20T22:00:22.991Z,0
2016-04-20T22:01:22.837Z,0
2016-04-20T22:02:22.982Z,0
2016-04-20T22:03:23.295Z,0
2016-04-20T22:04:22.955Z,0
2016-04-20T22:05:22.927Z,0
2016-04-20T22:06:22.929Z,0
2016-04-20T22:07:22.917Z,0
2016-04-20T22:08:22.872Z,0
2016-04-20T22:09:22.875Z,0
2016-04-20T22:10:22.846Z,0
2016-04-20T22:11:22.833Z,0
2016-04-20T22:12:22.851Z,0
2016-04-20T22:13:22.822Z,0
2016-04-20T22:14:22.811Z,0
2016-04-20T22:15:22.766Z,0
2016-04-20T22:16:22.769Z,0
2016-04-20T22:17:22.771Z,0
2016-04-20T22:18:22.587Z,0
2016-04-20T22:19:22.730Z,0
2016-04-20T22:20:22.702Z,0
2016-04-20T22:21:22.704Z,0
2016-04-20T22:22:22.691Z,0
2016-04-20T22:23:22.662Z,0
2016-04-20T22:24:24.618Z,0
2016-04-20T22:25:22.653Z,0
2016-04-20T22:26:22.624Z,0